sensor_id;sensor_type;location;lat;lon;timestamp;P1;durP1;ratioP1;P2;durP2;ratioP2
13959;SDS011;7052;51.050;3.716;2022-10-19T00:00:17;9.60;;;4.73;;
13959;SDS011;7052;51.050;3.716;2022-10-19T00:02:44;11.83;;;3.97;;
13959;SDS011;7052;51.050;3.716;2022-10-19T00:05:11;8.33;;;4.30;;
13959;SDS011;7052;51.050;3.716;2022-10-19T00:07:40;8.97;;;4.23;;
13959;SDS011;7052;51.050;3.716;2022-10-19T00:10:07;9.27;;;4.10;;
13959;SDS011;7052;51.050;3.716;2022-10-19T00:12:34;10.67;;;4.50;;
13959;SDS011;7052;51.050;3.716;2022-10-19T00:15:01;12.23;;;4.10;;
13959;SDS011;7052;51.050;3.716;2022-10-19T00:17:28;9.00;;;4.20;;
13959;SDS011;7052;51.050;3.716;2022-10-19T00:19:58;11.17;;;4.40;;
13959;SDS011;7052;51.050;3.716;2022-10-19T00:22:24;8.57;;;3.90;;
13959;SDS011;7052;51.050;3.716;2022-10-19T00:24:54;8.83;;;4.50;;
13959;SDS011;7052;51.050;3.716;2022-10-19T00:27:21;8.10;;;4.20;;
13959;SDS011;7052;51.050;3.716;2022-10-19T00:29:48;9.53;;;4.40;;
13959;SDS011;7052;51.050;3.716;2022-10-19T00:32:15;14.53;;;4.33;;
13959;SDS011;7052;51.050;3.716;2022-10-19T00:34:42;10.47;;;4.10;;
13959;SDS011;7052;51.050;3.716;2022-10-19T00:37:08;8.63;;;4.00;;
13959;SDS011;7052;51.050;3.716;2022-10-19T00:39:35;13.43;;;4.50;;
13959;SDS011;7052;51.050;3.716;2022-10-19T00:42:04;7.47;;;4.50;;
13959;SDS011;7052;51.050;3.716;2022-10-19T00:47:31;10.03;;;3.90;;
13959;SDS011;7052;51.050;3.716;2022-10-19T00:49:58;7.40;;;4.20;;
13959;SDS011;7052;51.050;3.716;2022-10-19T00:52:25;8.97;;;4.43;;
13959;SDS011;7052;51.050;3.716;2022-10-19T00:54:54;8.63;;;4.67;;
13959;SDS011;7052;51.050;3.716;2022-10-19T00:57:24;9.20;;;4.23;;
13959;SDS011;7052;51.050;3.716;2022-10-19T00:59:53;10.57;;;4.70;;
13959;SDS011;7052;51.050;3.716;2022-10-19T01:02:21;9.07;;;4.20;;
13959;SDS011;7052;51.050;3.716;2022-10-19T01:04:49;10.10;;;4.43;;
13959;SDS011;7052;51.050;3.716;2022-10-19T01:07:17;9.00;;;4.73;;
13959;SDS011;7052;51.050;3.716;2022-10-19T01:09:45;15.73;;;4.73;;
13959;SDS011;7052;51.050;3.716;2022-10-19T01:12:19;10.40;;;4.47;;
13959;SDS011;7052;51.050;3.716;2022-10-19T01:15:00;11.07;;;4.20;;
13959;SDS011;7052;51.050;3.716;2022-10-19T01:17:37;9.87;;;4.10;;
13959;SDS011;7052;51.050;3.716;2022-10-19T01:23:36;9.30;;;4.20;;
13959;SDS011;7052;51.050;3.716;2022-10-19T01:26:28;9.83;;;4.20;;
13959;SDS011;7052;51.050;3.716;2022-10-19T01:29:12;12.00;;;4.00;;
13959;SDS011;7052;51.050;3.716;2022-10-19T01:31:49;7.60;;;4.00;;
13959;SDS011;7052;51.050;3.716;2022-10-19T01:34:24;10.80;;;4.80;;
13959;SDS011;7052;51.050;3.716;2022-10-19T01:36:56;11.23;;;4.40;;
13959;SDS011;7052;51.050;3.716;2022-10-19T01:39:29;9.47;;;4.17;;
13959;SDS011;7052;51.050;3.716;2022-10-19T01:42:04;11.73;;;4.50;;
13959;SDS011;7052;51.050;3.716;2022-10-19T01:44:38;11.10;;;4.63;;
13959;SDS011;7052;51.050;3.716;2022-10-19T01:47:15;9.40;;;4.33;;
13959;SDS011;7052;51.050;3.716;2022-10-19T01:49:48;10.00;;;4.30;;
13959;SDS011;7052;51.050;3.716;2022-10-19T01:52:20;9.57;;;4.07;;
13959;SDS011;7052;51.050;3.716;2022-10-19T01:54:50;10.67;;;4.43;;
13959;SDS011;7052;51.050;3.716;2022-10-19T01:57:21;13.27;;;5.17;;
13959;SDS011;7052;51.050;3.716;2022-10-19T01:59:52;11.60;;;4.97;;
13959;SDS011;7052;51.050;3.716;2022-10-19T02:02:22;16.00;;;5.37;;
13959;SDS011;7052;51.050;3.716;2022-10-19T02:04:50;10.20;;;4.40;;
13959;SDS011;7052;51.050;3.716;2022-10-19T02:07:22;12.53;;;4.40;;
13959;SDS011;7052;51.050;3.716;2022-10-19T02:09:50;11.03;;;4.30;;
13959;SDS011;7052;51.050;3.716;2022-10-19T02:12:17;10.40;;;4.63;;
13959;SDS011;7052;51.050;3.716;2022-10-19T02:14:46;8.57;;;5.10;;
13959;SDS011;7052;51.050;3.716;2022-10-19T02:17:17;13.03;;;4.73;;
13959;SDS011;7052;51.050;3.716;2022-10-19T02:19:47;14.70;;;4.70;;
13959;SDS011;7052;51.050;3.716;2022-10-19T02:22:14;11.53;;;4.80;;
13959;SDS011;7052;51.050;3.716;2022-10-19T02:24:41;13.10;;;4.07;;
13959;SDS011;7052;51.050;3.716;2022-10-19T02:27:08;10.67;;;4.70;;
13959;SDS011;7052;51.050;3.716;2022-10-19T02:29:36;11.93;;;5.00;;
13959;SDS011;7052;51.050;3.716;2022-10-19T02:32:05;12.40;;;4.77;;
13959;SDS011;7052;51.050;3.716;2022-10-19T02:34:34;13.13;;;4.90;;
13959;SDS011;7052;51.050;3.716;2022-10-19T02:37:03;9.20;;;4.60;;
13959;SDS011;7052;51.050;3.716;2022-10-19T02:39:30;11.50;;;5.27;;
13959;SDS011;7052;51.050;3.716;2022-10-19T02:41:58;11.97;;;4.93;;
13959;SDS011;7052;51.050;3.716;2022-10-19T02:44:30;12.27;;;5.03;;
13959;SDS011;7052;51.050;3.716;2022-10-19T02:47:05;12.47;;;4.70;;
13959;SDS011;7052;51.050;3.716;2022-10-19T02:49:36;11.93;;;4.47;;
13959;SDS011;7052;51.050;3.716;2022-10-19T02:52:06;10.60;;;5.10;;
13959;SDS011;7052;51.050;3.716;2022-10-19T02:54:35;12.83;;;4.43;;
13959;SDS011;7052;51.050;3.716;2022-10-19T02:57:03;11.03;;;4.67;;
13959;SDS011;7052;51.050;3.716;2022-10-19T02:59:38;11.50;;;4.60;;
13959;SDS011;7052;51.050;3.716;2022-10-19T03:02:05;12.70;;;4.67;;
13959;SDS011;7052;51.050;3.716;2022-10-19T03:04:32;13.20;;;4.80;;
13959;SDS011;7052;51.050;3.716;2022-10-19T03:06:59;10.87;;;4.83;;
13959;SDS011;7052;51.050;3.716;2022-10-19T03:09:28;9.97;;;4.70;;
13959;SDS011;7052;51.050;3.716;2022-10-19T03:11:56;8.77;;;4.30;;
13959;SDS011;7052;51.050;3.716;2022-10-19T03:14:22;10.53;;;4.50;;
13959;SDS011;7052;51.050;3.716;2022-10-19T03:16:49;11.50;;;4.60;;
13959;SDS011;7052;51.050;3.716;2022-10-19T03:19:16;13.33;;;4.60;;
13959;SDS011;7052;51.050;3.716;2022-10-19T03:21:43;7.73;;;4.53;;
13959;SDS011;7052;51.050;3.716;2022-10-19T03:24:10;9.57;;;4.70;;
13959;SDS011;7052;51.050;3.716;2022-10-19T03:26:38;15.80;;;5.27;;
13959;SDS011;7052;51.050;3.716;2022-10-19T03:29:05;13.17;;;4.93;;
13959;SDS011;7052;51.050;3.716;2022-10-19T03:31:32;10.07;;;4.33;;
13959;SDS011;7052;51.050;3.716;2022-10-19T03:33:59;10.77;;;4.63;;
13959;SDS011;7052;51.050;3.716;2022-10-19T03:36:27;8.27;;;3.97;;
13959;SDS011;7052;51.050;3.716;2022-10-19T03:38:57;10.47;;;4.63;;
13959;SDS011;7052;51.050;3.716;2022-10-19T03:41:26;14.13;;;4.90;;
13959;SDS011;7052;51.050;3.716;2022-10-19T03:43:55;9.53;;;4.27;;
13959;SDS011;7052;51.050;3.716;2022-10-19T03:46:22;12.30;;;5.27;;
13959;SDS011;7052;51.050;3.716;2022-10-19T03:48:49;12.47;;;4.70;;
13959;SDS011;7052;51.050;3.716;2022-10-19T03:51:17;8.80;;;4.17;;
13959;SDS011;7052;51.050;3.716;2022-10-19T03:53:46;12.80;;;4.70;;
13959;SDS011;7052;51.050;3.716;2022-10-19T03:56:14;10.63;;;4.53;;
13959;SDS011;7052;51.050;3.716;2022-10-19T03:58:43;10.10;;;4.90;;
13959;SDS011;7052;51.050;3.716;2022-10-19T04:01:14;11.20;;;4.63;;
13959;SDS011;7052;51.050;3.716;2022-10-19T04:03:42;10.33;;;4.10;;
13959;SDS011;7052;51.050;3.716;2022-10-19T04:06:10;12.33;;;4.53;;
13959;SDS011;7052;51.050;3.716;2022-10-19T04:08:39;8.33;;;4.07;;
13959;SDS011;7052;51.050;3.716;2022-10-19T04:11:07;9.73;;;4.20;;
13959;SDS011;7052;51.050;3.716;2022-10-19T04:13:35;8.50;;;4.57;;
13959;SDS011;7052;51.050;3.716;2022-10-19T04:16:03;11.67;;;4.70;;
13959;SDS011;7052;51.050;3.716;2022-10-19T04:18:31;9.90;;;4.03;;
13959;SDS011;7052;51.050;3.716;2022-10-19T04:20:59;13.30;;;4.30;;
13959;SDS011;7052;51.050;3.716;2022-10-19T04:23:27;16.00;;;4.90;;
13959;SDS011;7052;51.050;3.716;2022-10-19T04:25:58;10.30;;;4.40;;
13959;SDS011;7052;51.050;3.716;2022-10-19T04:28:25;10.23;;;4.47;;
13959;SDS011;7052;51.050;3.716;2022-10-19T04:30:52;11.20;;;4.67;;
13959;SDS011;7052;51.050;3.716;2022-10-19T04:33:19;8.37;;;4.37;;
13959;SDS011;7052;51.050;3.716;2022-10-19T04:35:47;14.17;;;4.73;;
13959;SDS011;7052;51.050;3.716;2022-10-19T04:38:14;11.83;;;4.40;;
13959;SDS011;7052;51.050;3.716;2022-10-19T04:40:40;11.30;;;4.80;;
13959;SDS011;7052;51.050;3.716;2022-10-19T04:43:07;16.10;;;5.17;;
13959;SDS011;7052;51.050;3.716;2022-10-19T04:45:34;13.70;;;4.80;;
13959;SDS011;7052;51.050;3.716;2022-10-19T04:48:01;11.80;;;5.10;;
13959;SDS011;7052;51.050;3.716;2022-10-19T04:50:28;10.60;;;4.47;;
13959;SDS011;7052;51.050;3.716;2022-10-19T04:52:56;10.30;;;4.23;;
13959;SDS011;7052;51.050;3.716;2022-10-19T04:55:23;13.47;;;5.00;;
13959;SDS011;7052;51.050;3.716;2022-10-19T04:57:49;14.00;;;5.10;;
13959;SDS011;7052;51.050;3.716;2022-10-19T05:00:16;9.87;;;4.80;;
13959;SDS011;7052;51.050;3.716;2022-10-19T05:02:43;8.23;;;4.20;;
13959;SDS011;7052;51.050;3.716;2022-10-19T05:05:11;12.80;;;4.70;;
13959;SDS011;7052;51.050;3.716;2022-10-19T05:07:38;9.93;;;4.33;;
13959;SDS011;7052;51.050;3.716;2022-10-19T05:10:07;13.23;;;4.77;;
13959;SDS011;7052;51.050;3.716;2022-10-19T05:12:35;10.90;;;4.70;;
13959;SDS011;7052;51.050;3.716;2022-10-19T05:15:03;9.57;;;4.70;;
13959;SDS011;7052;51.050;3.716;2022-10-19T05:17:30;12.33;;;4.23;;
13959;SDS011;7052;51.050;3.716;2022-10-19T05:19:57;13.20;;;4.93;;
13959;SDS011;7052;51.050;3.716;2022-10-19T05:22:24;12.43;;;4.87;;
13959;SDS011;7052;51.050;3.716;2022-10-19T05:24:51;9.13;;;4.90;;
13959;SDS011;7052;51.050;3.716;2022-10-19T05:27:19;10.50;;;4.23;;
13959;SDS011;7052;51.050;3.716;2022-10-19T05:29:46;14.00;;;5.33;;
13959;SDS011;7052;51.050;3.716;2022-10-19T05:32:13;11.00;;;4.73;;
13959;SDS011;7052;51.050;3.716;2022-10-19T05:34:40;16.40;;;5.63;;
13959;SDS011;7052;51.050;3.716;2022-10-19T05:37:07;10.43;;;4.90;;
13959;SDS011;7052;51.050;3.716;2022-10-19T05:39:33;8.23;;;5.30;;
13959;SDS011;7052;51.050;3.716;2022-10-19T05:42:00;11.23;;;5.10;;
13959;SDS011;7052;51.050;3.716;2022-10-19T05:44:28;10.70;;;5.40;;
13959;SDS011;7052;51.050;3.716;2022-10-19T05:46:55;16.10;;;5.90;;
13959;SDS011;7052;51.050;3.716;2022-10-19T05:49:22;13.03;;;5.27;;
13959;SDS011;7052;51.050;3.716;2022-10-19T05:51:49;14.17;;;5.30;;
13959;SDS011;7052;51.050;3.716;2022-10-19T05:54:16;12.23;;;5.80;;
13959;SDS011;7052;51.050;3.716;2022-10-19T05:56:43;9.87;;;5.27;;
13959;SDS011;7052;51.050;3.716;2022-10-19T05:59:12;14.70;;;5.07;;
13959;SDS011;7052;51.050;3.716;2022-10-19T06:01:42;11.30;;;5.50;;
13959;SDS011;7052;51.050;3.716;2022-10-19T06:04:09;12.13;;;5.57;;
13959;SDS011;7052;51.050;3.716;2022-10-19T06:06:38;12.97;;;6.13;;
13959;SDS011;7052;51.050;3.716;2022-10-19T06:09:05;14.30;;;6.30;;
13959;SDS011;7052;51.050;3.716;2022-10-19T06:11:32;12.47;;;6.40;;
13959;SDS011;7052;51.050;3.716;2022-10-19T06:14:01;17.87;;;7.10;;
13959;SDS011;7052;51.050;3.716;2022-10-19T06:16:29;14.83;;;6.03;;
13959;SDS011;7052;51.050;3.716;2022-10-19T06:18:58;13.87;;;5.73;;
13959;SDS011;7052;51.050;3.716;2022-10-19T06:21:26;16.37;;;6.13;;
13959;SDS011;7052;51.050;3.716;2022-10-19T06:23:55;13.63;;;6.20;;
13959;SDS011;7052;51.050;3.716;2022-10-19T06:26:24;11.90;;;6.00;;
13959;SDS011;7052;51.050;3.716;2022-10-19T06:28:53;12.97;;;6.03;;
13959;SDS011;7052;51.050;3.716;2022-10-19T06:31:20;15.00;;;6.60;;
13959;SDS011;7052;51.050;3.716;2022-10-19T06:33:47;12.60;;;6.50;;
13959;SDS011;7052;51.050;3.716;2022-10-19T06:36:16;16.53;;;6.53;;
13959;SDS011;7052;51.050;3.716;2022-10-19T06:38:45;19.97;;;7.23;;
13959;SDS011;7052;51.050;3.716;2022-10-19T06:41:12;12.77;;;6.60;;
13959;SDS011;7052;51.050;3.716;2022-10-19T06:43:41;17.27;;;6.93;;
13959;SDS011;7052;51.050;3.716;2022-10-19T06:46:09;23.10;;;7.33;;
13959;SDS011;7052;51.050;3.716;2022-10-19T06:48:38;15.93;;;6.80;;
13959;SDS011;7052;51.050;3.716;2022-10-19T06:51:05;19.77;;;7.60;;
13959;SDS011;7052;51.050;3.716;2022-10-19T06:53:34;14.40;;;7.03;;
13959;SDS011;7052;51.050;3.716;2022-10-19T06:56:02;22.23;;;7.57;;
13959;SDS011;7052;51.050;3.716;2022-10-19T06:58:33;15.00;;;7.53;;
13959;SDS011;7052;51.050;3.716;2022-10-19T07:01:00;24.83;;;7.67;;
13959;SDS011;7052;51.050;3.716;2022-10-19T07:03:29;18.87;;;7.80;;
13959;SDS011;7052;51.050;3.716;2022-10-19T07:05:56;19.33;;;7.77;;
13959;SDS011;7052;51.050;3.716;2022-10-19T07:08:25;18.27;;;8.67;;
13959;SDS011;7052;51.050;3.716;2022-10-19T07:10:54;17.07;;;7.60;;
13959;SDS011;7052;51.050;3.716;2022-10-19T07:13:22;12.53;;;7.10;;
13959;SDS011;7052;51.050;3.716;2022-10-19T07:15:55;21.03;;;7.57;;
13959;SDS011;7052;51.050;3.716;2022-10-19T07:18:22;18.43;;;8.47;;
13959;SDS011;7052;51.050;3.716;2022-10-19T07:20:53;13.77;;;7.67;;
13959;SDS011;7052;51.050;3.716;2022-10-19T07:23:20;12.00;;;7.60;;
13959;SDS011;7052;51.050;3.716;2022-10-19T07:25:47;17.23;;;7.30;;
13959;SDS011;7052;51.050;3.716;2022-10-19T07:28:15;20.33;;;8.57;;
13959;SDS011;7052;51.050;3.716;2022-10-19T07:30:42;15.40;;;7.90;;
13959;SDS011;7052;51.050;3.716;2022-10-19T07:33:09;13.10;;;7.37;;
13959;SDS011;7052;51.050;3.716;2022-10-19T07:35:36;13.17;;;6.70;;
13959;SDS011;7052;51.050;3.716;2022-10-19T07:38:04;14.10;;;6.83;;
13959;SDS011;7052;51.050;3.716;2022-10-19T07:40:33;14.07;;;7.40;;
13959;SDS011;7052;51.050;3.716;2022-10-19T07:43:00;11.87;;;6.80;;
13959;SDS011;7052;51.050;3.716;2022-10-19T07:45:30;11.00;;;6.70;;
13959;SDS011;7052;51.050;3.716;2022-10-19T07:47:58;11.70;;;6.77;;
13959;SDS011;7052;51.050;3.716;2022-10-19T07:50:25;14.20;;;7.37;;
13959;SDS011;7052;51.050;3.716;2022-10-19T07:52:54;14.07;;;7.57;;
13959;SDS011;7052;51.050;3.716;2022-10-19T07:55:21;13.87;;;7.70;;
13959;SDS011;7052;51.050;3.716;2022-10-19T07:57:48;10.87;;;7.03;;
13959;SDS011;7052;51.050;3.716;2022-10-19T08:00:15;13.87;;;7.73;;
13959;SDS011;7052;51.050;3.716;2022-10-19T08:02:43;13.83;;;7.40;;
13959;SDS011;7052;51.050;3.716;2022-10-19T08:05:10;11.13;;;7.07;;
13959;SDS011;7052;51.050;3.716;2022-10-19T08:07:37;15.60;;;7.47;;
13959;SDS011;7052;51.050;3.716;2022-10-19T08:10:06;17.00;;;7.80;;
13959;SDS011;7052;51.050;3.716;2022-10-19T08:12:34;13.73;;;6.73;;
13959;SDS011;7052;51.050;3.716;2022-10-19T08:15:02;11.03;;;6.70;;
13959;SDS011;7052;51.050;3.716;2022-10-19T08:17:31;13.50;;;7.20;;
13959;SDS011;7052;51.050;3.716;2022-10-19T08:20:01;23.60;;;9.40;;
13959;SDS011;7052;51.050;3.716;2022-10-19T08:22:28;18.27;;;9.10;;
13959;SDS011;7052;51.050;3.716;2022-10-19T08:24:55;14.70;;;7.90;;
13959;SDS011;7052;51.050;3.716;2022-10-19T08:27:22;11.37;;;6.97;;
13959;SDS011;7052;51.050;3.716;2022-10-19T08:29:49;21.17;;;8.77;;
13959;SDS011;7052;51.050;3.716;2022-10-19T08:32:18;11.07;;;6.23;;
13959;SDS011;7052;51.050;3.716;2022-10-19T08:34:45;15.60;;;7.00;;
13959;SDS011;7052;51.050;3.716;2022-10-19T08:37:13;16.40;;;7.10;;
13959;SDS011;7052;51.050;3.716;2022-10-19T08:39:40;13.37;;;7.00;;
13959;SDS011;7052;51.050;3.716;2022-10-19T08:42:07;13.40;;;7.03;;
13959;SDS011;7052;51.050;3.716;2022-10-19T08:44:49;18.75;;;8.55;;
13959;SDS011;7052;51.050;3.716;2022-10-19T08:47:27;15.77;;;7.73;;
13959;SDS011;7052;51.050;3.716;2022-10-19T08:50:09;13.67;;;6.60;;
13959;SDS011;7052;51.050;3.716;2022-10-19T08:52:45;15.00;;;7.03;;
13959;SDS011;7052;51.050;3.716;2022-10-19T08:55:17;10.43;;;6.83;;
13959;SDS011;7052;51.050;3.716;2022-10-19T08:57:49;10.63;;;6.80;;
13959;SDS011;7052;51.050;3.716;2022-10-19T09:00:25;15.70;;;7.00;;
13959;SDS011;7052;51.050;3.716;2022-10-19T09:03:04;14.30;;;7.60;;
13959;SDS011;7052;51.050;3.716;2022-10-19T09:05:41;11.07;;;6.03;;
13959;SDS011;7052;51.050;3.716;2022-10-19T09:08:12;12.93;;;6.43;;
13959;SDS011;7052;51.050;3.716;2022-10-19T09:10:40;15.00;;;6.53;;
13959;SDS011;7052;51.050;3.716;2022-10-19T09:13:10;11.97;;;5.60;;
13959;SDS011;7052;51.050;3.716;2022-10-19T09:15:42;9.27;;;5.50;;
13959;SDS011;7052;51.050;3.716;2022-10-19T09:18:10;36.30;;;8.53;;
13959;SDS011;7052;51.050;3.716;2022-10-19T09:20:44;17.00;;;6.60;;
13959;SDS011;7052;51.050;3.716;2022-10-19T09:23:19;16.90;;;6.90;;
13959;SDS011;7052;51.050;3.716;2022-10-19T09:25:47;12.53;;;6.13;;
13959;SDS011;7052;51.050;3.716;2022-10-19T09:28:19;10.90;;;6.00;;
13959;SDS011;7052;51.050;3.716;2022-10-19T09:31:09;10.57;;;6.63;;
13959;SDS011;7052;51.050;3.716;2022-10-19T09:33:40;12.03;;;6.17;;
13959;SDS011;7052;51.050;3.716;2022-10-19T09:36:09;13.53;;;6.70;;
13959;SDS011;7052;51.050;3.716;2022-10-19T09:38:37;12.77;;;6.20;;
13959;SDS011;7052;51.050;3.716;2022-10-19T09:41:11;16.20;;;6.33;;
13959;SDS011;7052;51.050;3.716;2022-10-19T09:43:43;14.33;;;7.60;;
13959;SDS011;7052;51.050;3.716;2022-10-19T09:46:17;9.00;;;5.83;;
13959;SDS011;7052;51.050;3.716;2022-10-19T09:48:52;16.57;;;6.33;;
13959;SDS011;7052;51.050;3.716;2022-10-19T09:51:21;9.13;;;5.93;;
13959;SDS011;7052;51.050;3.716;2022-10-19T09:53:51;11.00;;;6.00;;
13959;SDS011;7052;51.050;3.716;2022-10-19T09:56:20;11.87;;;5.77;;
13959;SDS011;7052;51.050;3.716;2022-10-19T09:58:49;10.27;;;5.50;;
13959;SDS011;7052;51.050;3.716;2022-10-19T10:01:28;12.40;;;5.30;;
13959;SDS011;7052;51.050;3.716;2022-10-19T10:04:03;10.57;;;5.67;;
13959;SDS011;7052;51.050;3.716;2022-10-19T10:06:31;12.30;;;5.63;;
13959;SDS011;7052;51.050;3.716;2022-10-19T10:08:59;9.30;;;4.93;;
13959;SDS011;7052;51.050;3.716;2022-10-19T10:11:28;10.37;;;5.60;;
13959;SDS011;7052;51.050;3.716;2022-10-19T10:13:57;12.90;;;7.80;;
13959;SDS011;7052;51.050;3.716;2022-10-19T10:16:30;14.77;;;6.00;;
13959;SDS011;7052;51.050;3.716;2022-10-19T10:19:02;14.50;;;7.00;;
13959;SDS011;7052;51.050;3.716;2022-10-19T10:21:32;12.93;;;7.63;;
13959;SDS011;7052;51.050;3.716;2022-10-19T10:24:17;14.83;;;7.60;;
13959;SDS011;7052;51.050;3.716;2022-10-19T10:26:45;14.43;;;7.23;;
13959;SDS011;7052;51.050;3.716;2022-10-19T10:29:18;11.67;;;6.07;;
13959;SDS011;7052;51.050;3.716;2022-10-19T10:31:46;9.65;;;6.00;;
13959;SDS011;7052;51.050;3.716;2022-10-19T10:34:17;9.60;;;5.80;;
13959;SDS011;7052;51.050;3.716;2022-10-19T10:36:54;13.13;;;6.35;;
13959;SDS011;7052;51.050;3.716;2022-10-19T10:39:24;15.57;;;6.50;;
13959;SDS011;7052;51.050;3.716;2022-10-19T10:41:53;11.90;;;5.97;;
13959;SDS011;7052;51.050;3.716;2022-10-19T10:44:22;12.15;;;6.80;;
13959;SDS011;7052;51.050;3.716;2022-10-19T10:46:54;10.85;;;6.60;;
13959;SDS011;7052;51.050;3.716;2022-10-19T10:49:24;11.60;;;7.20;;
13959;SDS011;7052;51.050;3.716;2022-10-19T10:51:53;14.13;;;7.35;;
13959;SDS011;7052;51.050;3.716;2022-10-19T10:54:23;11.43;;;6.82;;
13959;SDS011;7052;51.050;3.716;2022-10-19T10:56:58;13.20;;;6.57;;
13959;SDS011;7052;51.050;3.716;2022-10-19T10:59:38;10.65;;;6.78;;
13959;SDS011;7052;51.050;3.716;2022-10-19T11:02:13;19.33;;;7.97;;
13959;SDS011;7052;51.050;3.716;2022-10-19T11:04:50;13.05;;;7.18;;
13959;SDS011;7052;51.050;3.716;2022-10-19T11:07:22;13.65;;;5.65;;
13959;SDS011;7052;51.050;3.716;2022-10-19T11:09:53;14.40;;;6.95;;
13959;SDS011;7052;51.050;3.716;2022-10-19T11:12:27;11.68;;;6.78;;
13959;SDS011;7052;51.050;3.716;2022-10-19T11:15:02;15.95;;;7.20;;
13959;SDS011;7052;51.050;3.716;2022-10-19T11:17:38;16.95;;;6.80;;
13959;SDS011;7052;51.050;3.716;2022-10-19T11:20:13;12.77;;;6.43;;
13959;SDS011;7052;51.050;3.716;2022-10-19T11:22:43;11.52;;;6.25;;
13959;SDS011;7052;51.050;3.716;2022-10-19T11:25:21;16.92;;;7.18;;
13959;SDS011;7052;51.050;3.716;2022-10-19T11:27:56;11.55;;;6.50;;
13959;SDS011;7052;51.050;3.716;2022-10-19T11:30:35;12.82;;;6.88;;
13959;SDS011;7052;51.050;3.716;2022-10-19T11:33:14;11.82;;;7.03;;
13959;SDS011;7052;51.050;3.716;2022-10-19T11:41:42;14.95;;;6.93;;
13959;SDS011;7052;51.050;3.716;2022-10-19T11:44:20;15.15;;;6.82;;
13959;SDS011;7052;51.050;3.716;2022-10-19T11:47:08;11.68;;;6.70;;
13959;SDS011;7052;51.050;3.716;2022-10-19T11:50:06;13.00;;;6.70;;
13959;SDS011;7052;51.050;3.716;2022-10-19T11:52:44;12.93;;;6.75;;
13959;SDS011;7052;51.050;3.716;2022-10-19T11:55:32;13.13;;;6.25;;
13959;SDS011;7052;51.050;3.716;2022-10-19T11:58:11;12.23;;;6.63;;
13959;SDS011;7052;51.050;3.716;2022-10-19T12:00:54;15.00;;;7.07;;
13959;SDS011;7052;51.050;3.716;2022-10-19T12:03:45;16.63;;;7.07;;
13959;SDS011;7052;51.050;3.716;2022-10-19T12:06:34;18.48;;;8.25;;
13959;SDS011;7052;51.050;3.716;2022-10-19T12:09:14;29.95;;;9.07;;
13959;SDS011;7052;51.050;3.716;2022-10-19T12:12:01;30.13;;;9.70;;
13959;SDS011;7052;51.050;3.716;2022-10-19T12:14:42;14.68;;;6.80;;
13959;SDS011;7052;51.050;3.716;2022-10-19T12:17:13;24.90;;;9.10;;
13959;SDS011;7052;51.050;3.716;2022-10-19T12:19:45;22.13;;;8.85;;
13959;SDS011;7052;51.050;3.716;2022-10-19T12:22:16;12.52;;;7.20;;
13959;SDS011;7052;51.050;3.716;2022-10-19T12:24:46;14.98;;;6.97;;
13959;SDS011;7052;51.050;3.716;2022-10-19T12:27:15;30.73;;;9.70;;
13959;SDS011;7052;51.050;3.716;2022-10-19T12:29:49;11.65;;;6.53;;
13959;SDS011;7052;51.050;3.716;2022-10-19T12:32:18;11.75;;;6.85;;
13959;SDS011;7052;51.050;3.716;2022-10-19T12:34:49;11.15;;;6.68;;
13959;SDS011;7052;51.050;3.716;2022-10-19T12:37:23;13.75;;;6.63;;
13959;SDS011;7052;51.050;3.716;2022-10-19T12:39:56;14.77;;;7.25;;
13959;SDS011;7052;51.050;3.716;2022-10-19T12:42:30;12.65;;;7.60;;
13959;SDS011;7052;51.050;3.716;2022-10-19T12:45:11;11.40;;;7.07;;
13959;SDS011;7052;51.050;3.716;2022-10-19T12:53:37;13.35;;;7.68;;
13959;SDS011;7052;51.050;3.716;2022-10-19T12:56:06;16.63;;;7.80;;
13959;SDS011;7052;51.050;3.716;2022-10-19T12:58:39;13.13;;;7.30;;
13959;SDS011;7052;51.050;3.716;2022-10-19T13:01:16;13.27;;;7.25;;
13959;SDS011;7052;51.050;3.716;2022-10-19T13:03:45;12.77;;;7.25;;
13959;SDS011;7052;51.050;3.716;2022-10-19T13:06:15;22.35;;;8.13;;
13959;SDS011;7052;51.050;3.716;2022-10-19T13:08:46;17.48;;;7.93;;
13959;SDS011;7052;51.050;3.716;2022-10-19T13:11:20;13.82;;;7.68;;
13959;SDS011;7052;51.050;3.716;2022-10-19T13:13:55;16.38;;;7.40;;
13959;SDS011;7052;51.050;3.716;2022-10-19T13:19:27;23.08;;;11.07;;
13959;SDS011;7052;51.050;3.716;2022-10-19T13:25:17;14.68;;;7.25;;
13959;SDS011;7052;51.050;3.716;2022-10-19T13:27:52;10.45;;;6.93;;
13959;SDS011;7052;51.050;3.716;2022-10-19T13:36:18;11.80;;;7.18;;
13959;SDS011;7052;51.050;3.716;2022-10-19T13:41:48;13.80;;;7.30;;
13959;SDS011;7052;51.050;3.716;2022-10-19T13:44:18;11.52;;;7.25;;
13959;SDS011;7052;51.050;3.716;2022-10-19T13:50:19;10.50;;;7.03;;
13959;SDS011;7052;51.050;3.716;2022-10-19T13:53:04;13.48;;;6.90;;
13959;SDS011;7052;51.050;3.716;2022-10-19T14:01:49;14.00;;;7.00;;
13959;SDS011;7052;51.050;3.716;2022-10-19T14:04:29;14.35;;;7.10;;
13959;SDS011;7052;51.050;3.716;2022-10-19T14:07:06;26.77;;;8.82;;
13959;SDS011;7052;51.050;3.716;2022-10-19T14:09:56;24.80;;;8.35;;
13959;SDS011;7052;51.050;3.716;2022-10-19T14:12:33;15.32;;;7.60;;
13959;SDS011;7052;51.050;3.716;2022-10-19T14:15:10;15.52;;;7.60;;
13959;SDS011;7052;51.050;3.716;2022-10-19T14:17:45;18.65;;;7.50;;
13959;SDS011;7052;51.050;3.716;2022-10-19T14:20:23;16.17;;;8.25;;
13959;SDS011;7052;51.050;3.716;2022-10-19T14:22:53;13.23;;;7.15;;
13959;SDS011;7052;51.050;3.716;2022-10-19T14:25:22;12.18;;;6.97;;
13959;SDS011;7052;51.050;3.716;2022-10-19T14:27:53;14.27;;;7.68;;
13959;SDS011;7052;51.050;3.716;2022-10-19T14:30:25;13.55;;;7.32;;
13959;SDS011;7052;51.050;3.716;2022-10-19T14:32:56;16.75;;;9.63;;
13959;SDS011;7052;51.050;3.716;2022-10-19T14:35:26;15.68;;;7.68;;
13959;SDS011;7052;51.050;3.716;2022-10-19T14:37:54;13.05;;;7.40;;
13959;SDS011;7052;51.050;3.716;2022-10-19T14:40:25;13.38;;;7.00;;
13959;SDS011;7052;51.050;3.716;2022-10-19T14:42:54;15.80;;;7.00;;
13959;SDS011;7052;51.050;3.716;2022-10-19T14:45:22;12.55;;;7.07;;
13959;SDS011;7052;51.050;3.716;2022-10-19T14:47:51;12.30;;;6.97;;
13959;SDS011;7052;51.050;3.716;2022-10-19T14:50:20;14.63;;;7.75;;
13959;SDS011;7052;51.050;3.716;2022-10-19T14:52:53;15.57;;;7.75;;
13959;SDS011;7052;51.050;3.716;2022-10-19T14:55:25;15.25;;;7.38;;
13959;SDS011;7052;51.050;3.716;2022-10-19T14:57:57;11.82;;;7.03;;
13959;SDS011;7052;51.050;3.716;2022-10-19T15:00:24;21.02;;;9.48;;
13959;SDS011;7052;51.050;3.716;2022-10-19T15:02:54;15.75;;;7.57;;
13959;SDS011;7052;51.050;3.716;2022-10-19T15:05:25;12.00;;;6.80;;
13959;SDS011;7052;51.050;3.716;2022-10-19T15:07:55;12.63;;;7.80;;
13959;SDS011;7052;51.050;3.716;2022-10-19T15:10:23;11.68;;;7.22;;
13959;SDS011;7052;51.050;3.716;2022-10-19T15:12:55;11.00;;;6.90;;
13959;SDS011;7052;51.050;3.716;2022-10-19T15:15:26;13.45;;;6.97;;
13959;SDS011;7052;51.050;3.716;2022-10-19T15:18:01;12.43;;;6.75;;
13959;SDS011;7052;51.050;3.716;2022-10-19T15:20:29;14.52;;;7.38;;
13959;SDS011;7052;51.050;3.716;2022-10-19T15:22:58;14.02;;;7.65;;
13959;SDS011;7052;51.050;3.716;2022-10-19T15:25:29;11.88;;;6.68;;
13959;SDS011;7052;51.050;3.716;2022-10-19T15:30:44;12.57;;;7.10;;
13959;SDS011;7052;51.050;3.716;2022-10-19T15:33:23;11.40;;;6.90;;
13959;SDS011;7052;51.050;3.716;2022-10-19T15:35:50;17.70;;;7.47;;
13959;SDS011;7052;51.050;3.716;2022-10-19T15:38:18;15.80;;;7.22;;
13959;SDS011;7052;51.050;3.716;2022-10-19T15:40:54;14.52;;;7.38;;
13959;SDS011;7052;51.050;3.716;2022-10-19T15:43:35;16.15;;;7.57;;
13959;SDS011;7052;51.050;3.716;2022-10-19T15:48:57;14.32;;;7.57;;
13959;SDS011;7052;51.050;3.716;2022-10-19T15:51:44;11.25;;;6.85;;
13959;SDS011;7052;51.050;3.716;2022-10-19T15:54:13;15.07;;;7.38;;
13959;SDS011;7052;51.050;3.716;2022-10-19T15:56:43;10.13;;;7.00;;
13959;SDS011;7052;51.050;3.716;2022-10-19T15:59:13;16.70;;;8.32;;